createdAt,value
2024-02-08T00:01:58.080Z,1.42
2024-02-08T00:04:24.824Z,1.85
2024-02-08T00:06:51.412Z,1.48
2024-02-08T00:09:17.986Z,1.30
2024-02-08T00:11:51.806Z,3.38
2024-02-08T00:14:18.347Z,2.83
2024-02-08T00:16:44.891Z,1.00
2024-02-08T00:19:12.242Z,1.30
2024-02-08T00:21:51.981Z,0.85
2024-02-08T00:24:23.527Z,2.95
2024-02-08T00:26:49.988Z,2.50
2024-02-08T00:29:16.539Z,1.48
2024-02-08T00:31:43.476Z,1.95
2024-02-08T00:34:15.168Z,1.17
2024-02-08T00:36:46.850Z,2.00
2024-02-08T00:39:13.311Z,3.63
2024-02-08T00:41:59.294Z,3.30
2024-02-08T00:44:27.305Z,1.67
2024-02-08T00:46:53.814Z,1.50
2024-02-08T00:49:22.349Z,0.90
2024-02-08T00:51:50.415Z,0.63
2024-02-08T00:54:17.702Z,0.90
2024-02-08T00:57:11.846Z,1.13
2024-02-08T00:59:39.237Z,0.90
2024-02-08T01:02:07.506Z,0.90
2024-02-08T01:04:34.763Z,0.82
2024-02-08T01:07:13.433Z,0.63
2024-02-08T01:09:39.885Z,0.93
2024-02-08T01:12:24.592Z,0.52
2024-02-08T01:14:52.179Z,0.88
2024-02-08T01:17:38.922Z,1.75
2024-02-08T01:20:08.020Z,0.68
2024-02-08T01:22:39.798Z,0.60
2024-02-08T01:25:06.425Z,0.55
2024-02-08T01:27:32.874Z,0.40
2024-02-08T01:30:11.939Z,0.55
2024-02-08T01:32:38.511Z,1.27
2024-02-08T01:35:08.169Z,0.43
2024-02-08T01:37:39.635Z,0.35
2024-02-08T01:40:24.085Z,0.45
2024-02-08T01:42:58.289Z,1.05
2024-02-08T01:45:39.397Z,0.70
2024-02-08T01:48:11.933Z,0.50
2024-02-08T01:50:57.527Z,1.23
2024-02-08T01:53:29.713Z,1.10
2024-02-08T01:56:00.973Z,0.63
2024-02-08T01:58:29.598Z,0.47
2024-02-08T02:00:57.776Z,0.47
2024-02-08T02:03:33.091Z,0.30
2024-02-08T02:06:00.539Z,0.30
2024-02-08T02:08:27.800Z,0.30
2024-02-08T02:11:25.862Z,0.30
2024-02-08T02:13:54.446Z,0.20
2024-02-08T02:16:24.527Z,0.38
2024-02-08T02:18:51.922Z,1.27
2024-02-08T02:21:22.357Z,0.47
2024-02-08T02:23:49.063Z,0.40
2024-02-08T02:26:16.453Z,0.50
2024-02-08T02:29:22.326Z,0.55
2024-02-08T02:31:50.446Z,1.00
2024-02-08T02:34:17.514Z,0.43
2024-02-08T02:36:47.039Z,0.55
2024-02-08T02:39:14.856Z,0.30
2024-02-08T02:41:41.478Z,0.20
2024-02-08T02:44:09.690Z,0.10
2024-02-08T02:46:39.209Z,0.20
2024-02-08T02:49:22.641Z,0.40
2024-02-08T02:51:53.478Z,0.20
2024-02-08T02:54:23.658Z,0.30
2024-02-08T02:56:54.374Z,0.93
2024-02-08T02:59:21.792Z,0.10
2024-02-08T03:01:51.404Z,0.10
2024-02-08T03:04:19.215Z,0.25
2024-02-08T03:06:46.941Z,0.65
2024-02-08T03:09:16.812Z,0.22
2024-02-08T03:11:46.888Z,0.20
2024-02-08T03:14:13.668Z,0.30
2024-02-08T03:16:42.380Z,0.30
2024-02-08T03:19:09.385Z,0.10
2024-02-08T03:21:41.289Z,0.10
2024-02-08T03:24:17.311Z,0.45
2024-02-08T03:26:48.112Z,0.20
2024-02-08T03:29:17.595Z,0.35
2024-02-08T03:31:48.829Z,0.28
2024-02-08T03:34:25.918Z,1.10
2024-02-08T03:37:00.111Z,0.17
2024-02-08T03:39:31.767Z,0.25
2024-02-08T03:42:03.575Z,1.08
2024-02-08T03:44:35.067Z,0.00
2024-02-08T03:47:09.700Z,0.22
2024-02-08T03:49:37.328Z,0.32
2024-02-08T03:52:26.135Z,0.13
2024-02-08T03:54:55.185Z,0.20
2024-02-08T03:57:24.983Z,0.10
2024-02-08T03:59:53.719Z,0.17
2024-02-08T04:02:23.155Z,0.77
2024-02-08T04:05:00.923Z,0.30
2024-02-08T04:07:46.597Z,0.17
2024-02-08T04:10:32.369Z,0.17
2024-02-08T04:13:20.973Z,0.05
2024-02-08T04:16:06.129Z,0.10
2024-02-08T04:18:51.256Z,0.20
2024-02-08T04:21:36.442Z,0.10
2024-02-08T04:24:22.876Z,0.20
2024-02-08T04:27:14.936Z,1.17
2024-02-08T04:29:59.699Z,0.93
2024-02-08T04:32:44.965Z,0.05
2024-02-08T04:35:36.009Z,0.88
2024-02-08T04:38:22.340Z,0.03
2024-02-08T04:41:20.979Z,0.30
2024-02-08T04:44:06.043Z,0.68
2024-02-08T04:47:12.820Z,2.17
2024-02-08T04:49:59.664Z,0.10
2024-02-08T04:52:44.544Z,0.20
2024-02-08T04:55:18.528Z,0.17
2024-02-08T04:57:50.121Z,0.05
2024-02-08T05:00:17.138Z,0.10
2024-02-08T05:02:43.636Z,0.20
2024-02-08T05:05:12.903Z,0.80
2024-02-08T05:07:39.924Z,0.10
2024-02-08T05:10:10.023Z,0.70
2024-02-08T05:12:37.233Z,0.10
2024-02-08T05:15:03.999Z,0.08
2024-02-08T05:17:31.141Z,1.23
2024-02-08T05:19:58.809Z,0.10
2024-02-08T05:22:41.957Z,0.22
2024-02-08T05:25:11.472Z,0.28
2024-02-08T05:27:40.946Z,0.00
2024-02-08T05:30:09.751Z,0.70
2024-02-08T05:32:37.555Z,0.00
2024-02-08T05:35:07.559Z,0.50
2024-02-08T05:37:34.105Z,0.40
2024-02-08T05:40:08.216Z,1.17
2024-02-08T05:42:35.164Z,0.10
2024-02-08T05:45:20.507Z,0.05
2024-02-08T05:47:49.729Z,0.60
2024-02-08T05:50:23.552Z,1.10
2024-02-08T05:53:10.587Z,0.15
2024-02-08T05:58:08.932Z,0.00
2024-02-08T06:00:53.922Z,0.45
2024-02-08T06:03:28.979Z,0.32
2024-02-08T06:06:08.198Z,0.10
2024-02-08T06:08:40.887Z,0.15
2024-02-08T06:11:17.560Z,0.28
2024-02-08T06:13:51.890Z,0.38
2024-02-08T06:16:27.859Z,0.47
2024-02-08T06:18:59.130Z,0.20
2024-02-08T06:21:41.648Z,0.20
2024-02-08T06:24:24.401Z,0.65
2024-02-08T06:27:02.510Z,0.10
2024-02-08T06:29:47.687Z,0.10
2024-02-08T06:32:30.165Z,0.20
2024-02-08T06:35:08.777Z,0.10
2024-02-08T06:37:47.689Z,0.10
2024-02-08T06:40:38.472Z,0.80
2024-02-08T06:43:21.063Z,0.73
2024-02-08T06:45:48.355Z,1.00
2024-02-08T06:48:37.349Z,0.60
2024-02-08T06:51:23.635Z,0.60
2024-02-08T06:54:10.504Z,0.40
2024-02-08T06:59:51.233Z,0.20
2024-02-08T07:02:38.157Z,2.28
2024-02-08T07:05:23.625Z,0.47
2024-02-08T07:08:08.564Z,0.73
2024-02-08T07:10:53.687Z,0.30
2024-02-08T07:13:38.770Z,0.40
2024-02-08T07:16:26.347Z,0.45
2024-02-08T07:19:11.336Z,0.10
2024-02-08T07:21:57.951Z,0.30
2024-02-08T07:24:44.136Z,1.08
2024-02-08T07:27:29.258Z,0.20
2024-02-08T07:30:14.211Z,0.03
2024-02-08T07:33:00.456Z,0.70
2024-02-08T07:35:45.231Z,3.83
2024-02-08T07:38:11.702Z,0.45
2024-02-08T07:40:45.013Z,0.35
2024-02-08T07:43:14.675Z,1.10
2024-02-08T07:45:45.211Z,0.98
2024-02-08T07:48:40.041Z,0.20
2024-02-08T07:51:07.487Z,0.25
2024-02-08T07:53:46.083Z,0.50
2024-02-08T07:56:26.576Z,0.15
2024-02-08T07:58:57.673Z,0.10
2024-02-08T08:01:33.492Z,0.20
2024-02-08T08:04:02.440Z,0.25
2024-02-08T08:06:38.868Z,0.40
2024-02-08T08:09:21.007Z,0.20
2024-02-08T08:11:53.894Z,0.10
2024-02-08T08:14:41.250Z,0.60
2024-02-08T08:17:09.412Z,1.38
2024-02-08T08:19:46.243Z,0.30
2024-02-08T08:22:40.854Z,0.20
2024-02-08T08:25:13.607Z,0.13
2024-02-08T08:27:54.557Z,0.20
2024-02-08T08:30:33.167Z,0.30
2024-02-08T08:33:01.603Z,0.80
2024-02-08T08:35:34.913Z,0.05
2024-02-08T08:38:21.579Z,0.10
2024-02-08T08:41:01.849Z,0.32
2024-02-08T08:43:32.913Z,0.10
2024-02-08T08:46:02.071Z,0.85
2024-02-08T08:48:33.301Z,0.00
2024-02-08T08:51:11.993Z,0.10
2024-02-08T08:53:44.688Z,0.57
2024-02-08T08:56:12.474Z,0.32
2024-02-08T08:58:43.353Z,0.17
2024-02-08T09:01:16.775Z,0.08
2024-02-08T09:03:45.184Z,0.15
2024-02-08T09:06:15.273Z,0.28
2024-02-08T09:08:56.274Z,0.15
2024-02-08T09:11:27.050Z,1.65
2024-02-08T09:13:54.509Z,0.20
2024-02-08T09:16:25.275Z,0.00
2024-02-08T09:19:03.760Z,0.10
2024-02-08T09:21:36.586Z,0.10
2024-02-08T09:24:05.163Z,0.45
2024-02-08T09:26:53.424Z,0.00
2024-02-08T09:29:30.023Z,0.10
2024-02-08T09:32:15.980Z,0.08
2024-02-08T09:34:42.930Z,0.22
2024-02-08T09:37:10.212Z,0.73
2024-02-08T09:40:10.408Z,1.38
2024-02-08T09:42:39.040Z,0.38
2024-02-08T09:45:19.719Z,0.08
2024-02-08T09:47:54.081Z,1.15
2024-02-08T09:50:32.373Z,0.52
2024-02-08T09:53:08.666Z,0.20
2024-02-08T09:58:11.619Z,0.10
2024-02-08T10:03:36.906Z,0.95
2024-02-08T10:06:14.263Z,0.82
2024-02-08T10:08:55.280Z,0.05
2024-02-08T10:11:25.582Z,0.45
2024-02-08T10:14:03.210Z,0.10
2024-02-08T10:16:32.213Z,0.63
2024-02-08T10:19:04.982Z,0.10
2024-02-08T10:21:37.361Z,0.50
2024-02-08T10:24:24.933Z,0.75
2024-02-08T10:26:51.449Z,21.13
2024-02-08T10:29:26.242Z,0.20
2024-02-08T10:31:56.010Z,0.30
2024-02-08T10:34:34.887Z,1.38
2024-02-08T10:37:05.233Z,2.53
2024-02-08T10:39:33.465Z,1.77
2024-02-08T10:42:17.069Z,2.08
2024-02-08T10:44:45.687Z,0.40
2024-02-08T10:47:15.480Z,0.17
2024-02-08T10:49:46.790Z,1.88
2024-02-08T10:52:21.631Z,0.45
2024-02-08T10:54:56.475Z,0.63
2024-02-08T10:57:39.175Z,0.40
2024-02-08T11:00:28.288Z,0.68
2024-02-08T11:03:10.166Z,0.85
2024-02-08T11:05:50.594Z,0.20
2024-02-08T11:08:26.161Z,0.43
2024-02-08T11:10:59.646Z,0.83
2024-02-08T11:13:30.766Z,0.13
2024-02-08T11:16:20.756Z,0.40
2024-02-08T11:18:54.404Z,0.30
2024-02-08T11:21:51.095Z,0.00
2024-02-08T11:24:31.189Z,0.20
2024-02-08T11:27:02.603Z,0.20
2024-02-08T11:29:48.229Z,0.40
2024-02-08T11:32:18.052Z,0.40
2024-02-08T11:34:46.871Z,0.20
2024-02-08T11:37:17.588Z,0.10
2024-02-08T11:39:48.952Z,0.17
2024-02-08T11:42:18.169Z,0.20
2024-02-08T11:44:46.132Z,0.20
2024-02-08T11:47:19.714Z,0.93
2024-02-08T11:50:04.750Z,0.32
2024-02-08T11:52:33.338Z,0.68
2024-02-08T11:55:13.543Z,0.73
2024-02-08T11:57:42.298Z,0.20
2024-02-08T12:00:17.349Z,0.80
2024-02-08T12:02:58.404Z,0.32
2024-02-08T12:05:30.147Z,0.20
2024-02-08T12:08:18.727Z,0.55
2024-02-08T12:10:49.231Z,0.20
2024-02-08T12:13:16.483Z,0.20
2024-02-08T12:15:56.515Z,0.20
2024-02-08T12:18:25.342Z,0.17
2024-02-08T12:21:12.049Z,0.63
2024-02-08T12:23:41.713Z,0.85
2024-02-08T12:26:11.551Z,0.10
2024-02-08T12:28:42.885Z,0.25
2024-02-08T12:31:19.135Z,0.60
2024-02-08T12:33:59.961Z,1.30
2024-02-08T12:36:32.871Z,0.38
2024-02-08T12:39:07.076Z,0.20
2024-02-08T12:41:39.549Z,0.13
2024-02-08T12:44:06.286Z,0.38
2024-02-08T12:46:33.232Z,0.20
2024-02-08T12:49:01.099Z,0.10
2024-02-08T12:51:27.675Z,0.52
2024-02-08T12:53:58.725Z,0.68
2024-02-08T12:56:48.256Z,1.98
2024-02-08T12:59:19.388Z,0.30
2024-02-08T13:01:48.846Z,0.40
2024-02-08T13:04:17.559Z,0.32
2024-02-08T13:07:08.921Z,0.63
2024-02-08T13:09:38.857Z,0.88
2024-02-08T13:12:21.195Z,2.30
2024-02-08T13:14:50.846Z,1.55
2024-02-08T13:17:22.061Z,1.00
2024-02-08T13:19:49.824Z,1.20
2024-02-08T13:22:25.034Z,2.55
2024-02-08T13:24:53.640Z,1.98
2024-02-08T13:27:26.365Z,0.68
2024-02-08T13:29:58.988Z,0.50
2024-02-08T13:32:32.413Z,2.65
2024-02-08T13:35:02.081Z,1.90
2024-02-08T13:37:29.035Z,0.60
2024-02-08T13:40:08.754Z,0.50
2024-02-08T13:42:48.449Z,0.45
2024-02-08T13:45:29.793Z,1.50
2024-02-08T13:48:02.222Z,1.88
2024-02-08T13:50:31.816Z,2.63
2024-02-08T13:53:02.523Z,1.17
2024-02-08T13:58:01.959Z,2.47
2024-02-08T14:00:29.003Z,1.60
2024-02-08T14:02:55.947Z,2.10
2024-02-08T14:05:42.888Z,2.35
2024-02-08T14:10:46.148Z,1.52
2024-02-08T14:13:16.240Z,5.18
2024-02-08T14:15:48.363Z,6.32
2024-02-08T14:18:32.990Z,2.80
2024-02-08T14:21:02.757Z,4.88
2024-02-08T14:23:31.540Z,4.45
2024-02-08T14:26:20.403Z,5.85
2024-02-08T14:28:50.511Z,12.73
2024-02-08T14:31:28.399Z,7.10
2024-02-08T14:33:56.671Z,6.32
2024-02-08T14:36:26.988Z,8.27
2024-02-08T14:39:26.802Z,11.30
2024-02-08T14:42:12.464Z,9.68
2024-02-08T14:44:59.102Z,5.65
2024-02-08T14:47:40.297Z,7.05
2024-02-08T14:50:46.395Z,6.15
2024-02-08T14:53:13.008Z,9.30
2024-02-08T14:55:46.349Z,6.65
2024-02-08T14:58:32.648Z,6.57
2024-02-08T15:01:31.718Z,7.35
2024-02-08T15:04:00.007Z,4.43
2024-02-08T15:06:36.849Z,4.63
2024-02-08T15:09:29.656Z,3.20
2024-02-08T15:12:01.301Z,4.60
2024-02-08T15:14:38.021Z,9.30
2024-02-08T15:17:09.095Z,5.95
2024-02-08T15:19:36.694Z,5.78
2024-02-08T15:22:19.827Z,5.97
2024-02-08T15:24:51.238Z,7.40
2024-02-08T15:27:32.624Z,6.63
2024-02-08T15:30:12.094Z,3.70
2024-02-08T15:32:48.209Z,4.30
2024-02-08T15:35:25.570Z,5.93
2024-02-08T15:38:10.860Z,5.25
2024-02-08T15:40:44.790Z,9.02
2024-02-08T15:43:19.196Z,4.63
2024-02-08T15:46:05.272Z,5.70
2024-02-08T15:48:35.482Z,6.28
2024-02-08T15:51:13.514Z,5.20
2024-02-08T15:53:51.077Z,9.40
2024-02-08T15:56:21.628Z,8.77
2024-02-08T15:59:04.336Z,8.27
2024-02-08T16:01:51.866Z,8.30
2024-02-08T16:04:37.950Z,9.75
2024-02-08T16:07:13.946Z,11.95
2024-02-08T16:09:40.707Z,8.88
2024-02-08T16:12:15.354Z,8.65
2024-02-08T16:14:45.319Z,13.02
2024-02-08T16:17:31.472Z,11.35
2024-02-08T16:19:59.580Z,9.70
2024-02-08T16:22:30.552Z,10.60
2024-02-08T16:25:03.694Z,8.48
2024-02-08T16:27:30.654Z,6.22
2024-02-08T16:30:08.580Z,9.48
2024-02-08T16:32:39.882Z,11.05
2024-02-08T16:35:30.078Z,18.55
2024-02-08T16:40:53.009Z,9.00
2024-02-08T16:43:29.612Z,14.82
2024-02-08T16:46:06.681Z,17.95
2024-02-08T16:48:38.074Z,8.65
2024-02-08T16:51:11.373Z,7.47
2024-02-08T16:53:41.069Z,7.28
2024-02-08T16:56:11.644Z,6.85
2024-02-08T16:58:44.865Z,6.03
2024-02-08T17:01:31.023Z,16.27
2024-02-08T17:04:10.214Z,13.43
2024-02-08T17:06:59.361Z,8.07
2024-02-08T17:09:26.145Z,8.27
2024-02-08T17:12:05.915Z,14.10
2024-02-08T17:14:37.845Z,13.90
2024-02-08T17:17:15.449Z,11.77
2024-02-08T17:19:53.179Z,9.05
2024-02-08T17:22:23.881Z,16.88
2024-02-08T17:25:14.760Z,7.13
2024-02-08T17:28:04.311Z,10.10
2024-02-08T17:30:52.904Z,12.63
2024-02-08T17:33:19.569Z,8.15
2024-02-08T17:35:47.272Z,14.15
2024-02-08T17:38:21.292Z,7.43
2024-02-08T17:40:51.400Z,10.02
2024-02-08T17:43:19.389Z,10.60
2024-02-08T17:45:57.364Z,16.17
2024-02-08T17:48:29.803Z,20.08
2024-02-08T17:51:08.616Z,19.52
2024-02-08T17:53:38.809Z,21.23
2024-02-08T17:56:11.710Z,15.40
2024-02-08T17:58:45.488Z,9.52
2024-02-08T18:01:17.354Z,9.80
2024-02-08T18:03:47.971Z,8.45
2024-02-08T18:06:17.853Z,9.15
2024-02-08T18:08:47.899Z,11.50
2024-02-08T18:11:17.324Z,12.73
2024-02-08T18:13:44.206Z,15.18
2024-02-08T18:16:12.865Z,8.80
2024-02-08T18:18:41.342Z,9.02
2024-02-08T18:21:15.007Z,10.38
2024-02-08T18:23:46.478Z,9.73
2024-02-08T18:26:29.072Z,15.85
2024-02-08T18:28:57.670Z,19.95
2024-02-08T18:31:26.876Z,14.30
2024-02-08T18:33:58.484Z,14.98
2024-02-08T18:36:26.113Z,12.07
2024-02-08T18:38:53.864Z,7.15
2024-02-08T18:41:23.331Z,10.68
2024-02-08T18:43:52.792Z,7.35
2024-02-08T18:46:20.660Z,18.23
2024-02-08T18:48:54.669Z,9.32
2024-02-08T18:51:35.401Z,7.15
2024-02-08T18:54:01.926Z,6.28
2024-02-08T18:56:32.705Z,13.82
2024-02-08T18:59:06.625Z,10.45
2024-02-08T19:01:33.216Z,7.00
2024-02-08T19:04:04.866Z,15.02
2024-02-08T19:06:32.589Z,10.32
2024-02-08T19:08:59.121Z,12.75
2024-02-08T19:11:25.567Z,9.52
2024-02-08T19:13:53.025Z,10.15
2024-02-08T19:16:27.735Z,7.80
2024-02-08T19:19:01.806Z,9.88
2024-02-08T19:21:30.552Z,16.42
2024-02-08T19:24:03.337Z,9.07
2024-02-08T19:26:36.759Z,11.35
2024-02-08T19:29:07.933Z,9.73
2024-02-08T19:31:38.543Z,8.68
2024-02-08T19:34:09.741Z,5.97
2024-02-08T19:36:41.630Z,7.28
2024-02-08T19:39:42.615Z,10.68
2024-02-08T19:42:19.567Z,13.63
2024-02-08T19:44:54.513Z,6.53
2024-02-08T19:47:29.800Z,6.85
2024-02-08T19:50:02.970Z,7.85
2024-02-08T19:52:39.742Z,6.63
2024-02-08T19:55:22.209Z,4.18
2024-02-08T19:57:50.318Z,6.53
2024-02-08T20:00:23.047Z,7.78
2024-02-08T20:02:53.402Z,7.05
2024-02-08T20:05:26.064Z,6.72
2024-02-08T20:07:52.929Z,5.70
2024-02-08T20:10:20.488Z,12.07
2024-02-08T20:12:53.452Z,13.57
2024-02-08T20:15:22.468Z,13.25
2024-02-08T20:17:59.955Z,11.88
2024-02-08T20:20:29.318Z,8.27
2024-02-08T20:22:56.934Z,5.88
2024-02-08T20:25:28.577Z,5.85
2024-02-08T20:27:58.997Z,7.10
2024-02-08T20:30:26.319Z,7.82
2024-02-08T20:33:02.621Z,7.88
2024-02-08T20:35:32.840Z,6.85
2024-02-08T20:38:00.918Z,6.35
2024-02-08T20:40:29.316Z,7.15
2024-02-08T20:42:56.429Z,7.95
2024-02-08T20:45:33.878Z,7.63
2024-02-08T20:48:09.046Z,7.30
2024-02-08T20:50:41.362Z,9.02
2024-02-08T20:53:16.090Z,6.80
2024-02-08T20:55:44.497Z,8.48
2024-02-08T20:58:13.188Z,5.43
2024-02-08T21:00:47.035Z,3.72
2024-02-08T21:03:15.614Z,6.80
2024-02-08T21:05:49.725Z,4.47
2024-02-08T21:08:17.968Z,6.15
2024-02-08T21:10:49.035Z,5.03
2024-02-08T21:13:18.321Z,5.13
2024-02-08T21:15:45.276Z,6.90
2024-02-08T21:18:21.781Z,9.65
2024-02-08T21:23:19.245Z,6.25
2024-02-08T21:25:47.358Z,6.65
2024-02-08T21:28:15.003Z,9.60
2024-02-08T21:30:48.400Z,5.97
2024-02-08T21:33:15.354Z,6.93
2024-02-08T21:35:48.578Z,7.60
2024-02-08T21:38:17.156Z,8.05
2024-02-08T21:40:46.915Z,7.18
2024-02-08T21:43:17.543Z,6.63
2024-02-08T21:45:47.801Z,6.53
2024-02-08T21:48:19.465Z,5.30
2024-02-08T21:50:49.998Z,5.88
2024-02-08T21:53:17.793Z,8.98
2024-02-08T21:55:44.648Z,4.28
2024-02-08T21:58:16.696Z,7.57
2024-02-08T22:00:43.777Z,6.38
2024-02-08T22:03:10.401Z,7.90
2024-02-08T22:05:37.508Z,7.97
2024-02-08T22:08:05.057Z,9.80
2024-02-08T22:10:31.913Z,10.18
2024-02-08T22:13:03.265Z,8.45
2024-02-08T22:15:33.563Z,8.57
2024-02-08T22:18:03.083Z,8.93
2024-02-08T22:20:29.882Z,8.00
2024-02-08T22:22:56.601Z,6.00
2024-02-08T22:25:24.669Z,5.25
2024-02-08T22:27:51.741Z,5.43
2024-02-08T22:30:19.595Z,4.32
2024-02-08T22:32:47.551Z,5.90
2024-02-08T22:35:16.963Z,4.75
2024-02-08T22:37:44.069Z,4.60
2024-02-08T22:40:11.185Z,5.25
2024-02-08T22:42:37.817Z,4.95
2024-02-08T22:45:12.728Z,7.35
2024-02-08T22:47:40.172Z,4.25
2024-02-08T22:50:16.335Z,6.28
2024-02-08T22:52:47.781Z,3.92
2024-02-08T22:55:18.080Z,5.03
2024-02-08T22:57:46.160Z,3.65
2024-02-08T23:00:26.515Z,3.55
2024-02-08T23:02:57.572Z,4.60
2024-02-08T23:05:28.505Z,5.40
2024-02-08T23:07:55.362Z,3.83
2024-02-08T23:10:22.032Z,5.40
2024-02-08T23:12:49.350Z,6.60
2024-02-08T23:15:17.244Z,5.38
2024-02-08T23:17:44.195Z,3.80
2024-02-08T23:20:15.405Z,6.90
2024-02-08T23:22:42.121Z,3.30
2024-02-08T23:25:11.861Z,6.05
2024-02-08T23:27:38.946Z,6.45
2024-02-08T23:30:10.740Z,4.43
2024-02-08T23:32:39.922Z,5.22
2024-02-08T23:35:13.733Z,5.20
2024-02-08T23:37:45.996Z,6.35
2024-02-08T23:40:15.784Z,5.32
2024-02-08T23:42:43.322Z,3.30
2024-02-08T23:45:13.675Z,6.22
2024-02-08T23:47:40.996Z,5.22
2024-02-08T23:50:10.532Z,4.05
2024-02-08T23:52:37.751Z,7.63
2024-02-08T23:55:08.662Z,5.32
2024-02-08T23:57:38.423Z,8.23
